sensor_id;sensor_type;location;lat;lon;timestamp;pressure;altitude;pressure_sealevel;temperature;humidity
804;BME280;25687;49.976;8.240;2023-09-19T00:00:19;99541.25;;;16.35;100.00
804;BME280;25687;49.976;8.240;2023-09-19T00:02:55;99538.78;;;16.34;100.00
804;BME280;25687;49.976;8.240;2023-09-19T00:05:24;99550.66;;;16.36;100.00
804;BME280;25687;49.976;8.240;2023-09-19T00:07:53;99548.50;;;16.41;100.00
804;BME280;25687;49.976;8.240;2023-09-19T00:10:28;99543.69;;;16.27;100.00
804;BME280;25687;49.976;8.240;2023-09-19T00:12:57;99544.63;;;16.26;100.00
804;BME280;25687;49.976;8.240;2023-09-19T00:15:26;99547.38;;;16.34;100.00
804;BME280;25687;49.976;8.240;2023-09-19T00:18:12;99549.69;;;16.18;100.00
804;BME280;25687;49.976;8.240;2023-09-19T00:20:41;99548.97;;;16.16;100.00
804;BME280;25687;49.976;8.240;2023-09-19T00:23:07;99547.75;;;16.20;100.00
804;BME280;25687;49.976;8.240;2023-09-19T00:25:34;99553.91;;;16.19;100.00
804;BME280;25687;49.976;8.240;2023-09-19T00:28:00;99557.72;;;16.14;100.00
804;BME280;25687;49.976;8.240;2023-09-19T00:30:26;99555.66;;;16.08;100.00
804;BME280;25687;49.976;8.240;2023-09-19T00:32:52;99553.44;;;16.04;100.00
804;BME280;25687;49.976;8.240;2023-09-19T00:35:18;99553.72;;;16.01;100.00
804;BME280;25687;49.976;8.240;2023-09-19T00:37:50;99559.44;;;15.94;100.00
804;BME280;25687;49.976;8.240;2023-09-19T00:40:16;99555.34;;;15.92;100.00
804;BME280;25687;49.976;8.240;2023-09-19T00:42:46;99556.34;;;15.79;100.00
804;BME280;25687;49.976;8.240;2023-09-19T00:45:13;99560.56;;;15.71;100.00
804;BME280;25687;49.976;8.240;2023-09-19T00:47:43;99567.44;;;15.81;100.00
804;BME280;25687;49.976;8.240;2023-09-19T00:50:09;99568.84;;;15.86;100.00
804;BME280;25687;49.976;8.240;2023-09-19T00:52:36;99573.47;;;15.82;100.00
804;BME280;25687;49.976;8.240;2023-09-19T00:55:08;99572.72;;;15.80;100.00
804;BME280;25687;49.976;8.240;2023-09-19T00:57:34;99575.31;;;15.80;100.00
804;BME280;25687;49.976;8.240;2023-09-19T01:00:02;99575.31;;;15.80;100.00
804;BME280;25687;49.976;8.240;2023-09-19T01:02:32;99584.53;;;15.84;100.00
804;BME280;25687;49.976;8.240;2023-09-19T01:04:59;99587.22;;;15.82;100.00
804;BME280;25687;49.976;8.240;2023-09-19T01:07:26;99601.25;;;15.80;100.00
804;BME280;25687;49.976;8.240;2023-09-19T01:09:55;99596.47;;;15.75;100.00
804;BME280;25687;49.976;8.240;2023-09-19T01:12:28;99607.59;;;15.66;100.00
804;BME280;25687;49.976;8.240;2023-09-19T01:15:04;99605.94;;;15.65;100.00
804;BME280;25687;49.976;8.240;2023-09-19T01:17:37;99608.13;;;15.60;100.00
804;BME280;25687;49.976;8.240;2023-09-19T01:20:15;99618.88;;;15.55;100.00
804;BME280;25687;49.976;8.240;2023-09-19T01:26:04;99627.34;;;15.57;100.00
804;BME280;25687;49.976;8.240;2023-09-19T01:28:45;99628.66;;;15.52;100.00
804;BME280;25687;49.976;8.240;2023-09-19T01:31:19;99630.88;;;15.56;100.00
804;BME280;25687;49.976;8.240;2023-09-19T01:34:01;99634.41;;;15.55;100.00
804;BME280;25687;49.976;8.240;2023-09-19T01:36:33;99642.09;;;15.57;100.00
804;BME280;25687;49.976;8.240;2023-09-19T01:39:08;99638.84;;;15.64;100.00
804;BME280;25687;49.976;8.240;2023-09-19T01:44:40;99639.41;;;15.68;100.00
804;BME280;25687;49.976;8.240;2023-09-19T01:47:19;99641.44;;;15.64;100.00
804;BME280;25687;49.976;8.240;2023-09-19T01:50:06;99648.13;;;15.67;100.00
804;BME280;25687;49.976;8.240;2023-09-19T01:52:38;99649.78;;;15.68;100.00
804;BME280;25687;49.976;8.240;2023-09-19T01:55:09;99644.75;;;15.76;100.00
804;BME280;25687;49.976;8.240;2023-09-19T01:57:44;99662.88;;;15.67;100.00
804;BME280;25687;49.976;8.240;2023-09-19T02:00:14;99658.81;;;15.74;100.00
804;BME280;25687;49.976;8.240;2023-09-19T02:02:44;99664.78;;;15.64;100.00
804;BME280;25687;49.976;8.240;2023-09-19T02:05:10;99667.94;;;15.68;100.00
804;BME280;25687;49.976;8.240;2023-09-19T02:07:38;99667.50;;;15.63;100.00
804;BME280;25687;49.976;8.240;2023-09-19T02:10:05;99675.88;;;15.55;100.00
804;BME280;25687;49.976;8.240;2023-09-19T02:12:31;99663.78;;;15.56;100.00
804;BME280;25687;49.976;8.240;2023-09-19T02:14:57;99661.03;;;15.36;100.00
804;BME280;25687;49.976;8.240;2023-09-19T02:17:24;99674.78;;;15.48;100.00
804;BME280;25687;49.976;8.240;2023-09-19T02:19:55;99675.38;;;15.40;100.00
804;BME280;25687;49.976;8.240;2023-09-19T02:22:21;99677.09;;;15.30;100.00
804;BME280;25687;49.976;8.240;2023-09-19T02:24:48;99681.69;;;15.26;100.00
804;BME280;25687;49.976;8.240;2023-09-19T02:27:14;99680.75;;;15.27;100.00
804;BME280;25687;49.976;8.240;2023-09-19T02:29:41;99685.53;;;15.11;100.00
804;BME280;25687;49.976;8.240;2023-09-19T02:32:06;99691.75;;;15.20;100.00
804;BME280;25687;49.976;8.240;2023-09-19T02:34:32;99685.28;;;15.14;100.00
804;BME280;25687;49.976;8.240;2023-09-19T02:36:57;99685.97;;;15.16;100.00
804;BME280;25687;49.976;8.240;2023-09-19T02:39:23;99685.59;;;15.21;100.00
804;BME280;25687;49.976;8.240;2023-09-19T02:41:49;99690.72;;;15.11;100.00
804;BME280;25687;49.976;8.240;2023-09-19T02:44:14;99682.47;;;15.06;100.00
804;BME280;25687;49.976;8.240;2023-09-19T02:46:39;99686.25;;;15.01;100.00
804;BME280;25687;49.976;8.240;2023-09-19T02:49:05;99685.31;;;15.03;100.00
804;BME280;25687;49.976;8.240;2023-09-19T02:51:31;99682.84;;;15.01;100.00
804;BME280;25687;49.976;8.240;2023-09-19T02:54:01;99679.22;;;14.92;100.00
804;BME280;25687;49.976;8.240;2023-09-19T02:56:29;99685.22;;;14.93;100.00
804;BME280;25687;49.976;8.240;2023-09-19T02:58:55;99687.94;;;14.91;100.00
804;BME280;25687;49.976;8.240;2023-09-19T03:01:21;99689.50;;;14.82;100.00
804;BME280;25687;49.976;8.240;2023-09-19T03:03:46;99687.47;;;14.75;100.00
804;BME280;25687;49.976;8.240;2023-09-19T03:06:11;99686.69;;;14.74;100.00
804;BME280;25687;49.976;8.240;2023-09-19T03:08:38;99696.31;;;14.72;100.00
804;BME280;25687;49.976;8.240;2023-09-19T03:11:05;99690.47;;;14.70;100.00
804;BME280;25687;49.976;8.240;2023-09-19T03:13:34;99696.78;;;14.66;100.00
804;BME280;25687;49.976;8.240;2023-09-19T03:16:01;99698.44;;;14.56;100.00
804;BME280;25687;49.976;8.240;2023-09-19T03:18:30;99704.06;;;14.61;100.00
804;BME280;25687;49.976;8.240;2023-09-19T03:20:57;99709.38;;;14.59;100.00
804;BME280;25687;49.976;8.240;2023-09-19T03:23:25;99711.03;;;14.60;100.00
804;BME280;25687;49.976;8.240;2023-09-19T03:25:51;99714.91;;;14.55;100.00
804;BME280;25687;49.976;8.240;2023-09-19T03:28:17;99715.28;;;14.50;100.00
804;BME280;25687;49.976;8.240;2023-09-19T03:30:43;99714.09;;;14.54;100.00
804;BME280;25687;49.976;8.240;2023-09-19T03:33:09;99714.44;;;14.61;100.00
804;BME280;25687;49.976;8.240;2023-09-19T03:35:37;99715.38;;;14.60;100.00
804;BME280;25687;49.976;8.240;2023-09-19T03:38:03;99715.13;;;14.63;100.00
804;BME280;25687;49.976;8.240;2023-09-19T03:40:29;99713.50;;;14.62;100.00
804;BME280;25687;49.976;8.240;2023-09-19T03:42:54;99718.34;;;14.55;100.00
804;BME280;25687;49.976;8.240;2023-09-19T03:45:20;99716.22;;;14.49;100.00
804;BME280;25687;49.976;8.240;2023-09-19T03:47:45;99713.84;;;14.46;100.00
804;BME280;25687;49.976;8.240;2023-09-19T03:50:13;99714.69;;;14.46;100.00
804;BME280;25687;49.976;8.240;2023-09-19T03:52:43;99716.78;;;14.41;100.00
804;BME280;25687;49.976;8.240;2023-09-19T03:55:08;99717.38;;;14.45;100.00
804;BME280;25687;49.976;8.240;2023-09-19T03:57:34;99729.63;;;14.43;100.00
804;BME280;25687;49.976;8.240;2023-09-19T04:00:01;99730.09;;;14.36;100.00
804;BME280;25687;49.976;8.240;2023-09-19T04:02:26;99728.44;;;14.35;100.00
804;BME280;25687;49.976;8.240;2023-09-19T04:04:57;99731.97;;;14.34;100.00
804;BME280;25687;49.976;8.240;2023-09-19T04:07:23;99735.81;;;14.29;100.00
804;BME280;25687;49.976;8.240;2023-09-19T04:09:48;99730.44;;;14.32;100.00
804;BME280;25687;49.976;8.240;2023-09-19T04:12:14;99731.16;;;14.34;100.00
804;BME280;25687;49.976;8.240;2023-09-19T04:14:42;99735.25;;;14.25;100.00
804;BME280;25687;49.976;8.240;2023-09-19T04:17:07;99741.00;;;14.29;100.00
804;BME280;25687;49.976;8.240;2023-09-19T04:19:32;99738.66;;;14.26;100.00
804;BME280;25687;49.976;8.240;2023-09-19T04:21:57;99752.19;;;14.29;100.00
804;BME280;25687;49.976;8.240;2023-09-19T04:24:23;99745.03;;;14.22;100.00
804;BME280;25687;49.976;8.240;2023-09-19T04:26:48;99744.56;;;14.28;100.00
804;BME280;25687;49.976;8.240;2023-09-19T04:29:13;99745.72;;;14.24;100.00
804;BME280;25687;49.976;8.240;2023-09-19T04:31:39;99743.84;;;14.26;100.00
804;BME280;25687;49.976;8.240;2023-09-19T04:34:05;99743.84;;;14.26;100.00
804;BME280;25687;49.976;8.240;2023-09-19T04:36:30;99746.44;;;14.26;100.00
804;BME280;25687;49.976;8.240;2023-09-19T04:38:55;99746.63;;;14.23;100.00
804;BME280;25687;49.976;8.240;2023-09-19T04:41:21;99745.81;;;14.22;100.00
804;BME280;25687;49.976;8.240;2023-09-19T04:43:47;99748.75;;;14.17;100.00
804;BME280;25687;49.976;8.240;2023-09-19T04:46:12;99747.94;;;14.06;100.00
804;BME280;25687;49.976;8.240;2023-09-19T04:48:39;99743.34;;;14.09;100.00
804;BME280;25687;49.976;8.240;2023-09-19T04:51:05;99749.34;;;14.10;100.00
804;BME280;25687;49.976;8.240;2023-09-19T04:53:30;99754.38;;;14.11;100.00
804;BME280;25687;49.976;8.240;2023-09-19T04:55:55;99763.91;;;14.11;100.00
804;BME280;25687;49.976;8.240;2023-09-19T04:58:22;99766.84;;;14.06;100.00
804;BME280;25687;49.976;8.240;2023-09-19T05:00:47;99763.44;;;14.06;100.00
804;BME280;25687;49.976;8.240;2023-09-19T05:03:13;99772.88;;;14.07;100.00
804;BME280;25687;49.976;8.240;2023-09-19T05:05:38;99772.63;;;14.10;100.00
804;BME280;25687;49.976;8.240;2023-09-19T05:08:06;99775.81;;;14.13;100.00
804;BME280;25687;49.976;8.240;2023-09-19T05:10:34;99773.22;;;14.13;100.00
804;BME280;25687;49.976;8.240;2023-09-19T05:13:00;99773.81;;;14.17;100.00
804;BME280;25687;49.976;8.240;2023-09-19T05:15:26;99778.25;;;14.15;100.00
804;BME280;25687;49.976;8.240;2023-09-19T05:17:52;99781.09;;;14.12;100.00
804;BME280;25687;49.976;8.240;2023-09-19T05:20:20;99778.25;;;14.15;100.00
804;BME280;25687;49.976;8.240;2023-09-19T05:23:07;99782.25;;;14.08;100.00
804;BME280;25687;49.976;8.240;2023-09-19T05:25:35;99787.78;;;14.14;100.00
804;BME280;25687;49.976;8.240;2023-09-19T05:28:05;99798.50;;;14.21;100.00
804;BME280;25687;49.976;8.240;2023-09-19T05:30:31;99796.25;;;14.16;100.00
804;BME280;25687;49.976;8.240;2023-09-19T05:32:58;99792.84;;;14.16;100.00
804;BME280;25687;49.976;8.240;2023-09-19T05:35:24;99790.97;;;14.18;100.00
804;BME280;25687;49.976;8.240;2023-09-19T05:37:54;99791.78;;;14.18;100.00
804;BME280;25687;49.976;8.240;2023-09-19T05:40:21;99798.50;;;14.21;100.00
804;BME280;25687;49.976;8.240;2023-09-19T05:42:47;99796.78;;;14.33;100.00
804;BME280;25687;49.976;8.240;2023-09-19T05:45:13;99795.47;;;14.39;100.00
804;BME280;25687;49.976;8.240;2023-09-19T05:47:39;99799.84;;;14.38;100.00
804;BME280;25687;49.976;8.240;2023-09-19T05:50:15;99798.91;;;14.50;100.00
804;BME280;25687;49.976;8.240;2023-09-19T05:52:41;99805.34;;;14.56;100.00
804;BME280;25687;49.976;8.240;2023-09-19T05:55:08;99810.91;;;14.63;100.00
804;BME280;25687;49.976;8.240;2023-09-19T05:57:34;99814.13;;;14.78;100.00
804;BME280;25687;49.976;8.240;2023-09-19T05:59:59;99818.56;;;14.87;100.00
804;BME280;25687;49.976;8.240;2023-09-19T06:02:24;99822.25;;;14.96;100.00
804;BME280;25687;49.976;8.240;2023-09-19T06:04:54;99829.06;;;15.08;100.00
804;BME280;25687;49.976;8.240;2023-09-19T06:07:20;99817.06;;;15.07;100.00
804;BME280;25687;49.976;8.240;2023-09-19T06:09:47;99812.91;;;15.16;100.00
804;BME280;25687;49.976;8.240;2023-09-19T06:12:12;99813.50;;;15.20;100.00
804;BME280;25687;49.976;8.240;2023-09-19T06:14:40;99812.47;;;15.11;100.00
804;BME280;25687;49.976;8.240;2023-09-19T06:17:06;99819.47;;;15.31;100.00
804;BME280;25687;49.976;8.240;2023-09-19T06:19:31;99822.41;;;15.38;100.00
804;BME280;25687;49.976;8.240;2023-09-19T06:21:56;99831.47;;;15.44;100.00
804;BME280;25687;49.976;8.240;2023-09-19T06:24:21;99835.47;;;15.80;100.00
804;BME280;25687;49.976;8.240;2023-09-19T06:26:46;99834.19;;;15.75;100.00
804;BME280;25687;49.976;8.240;2023-09-19T06:29:13;99833.38;;;15.74;100.00
804;BME280;25687;49.976;8.240;2023-09-19T06:31:39;99841.75;;;15.78;100.00
804;BME280;25687;49.976;8.240;2023-09-19T06:34:04;99843.41;;;15.79;100.00
804;BME280;25687;49.976;8.240;2023-09-19T06:36:29;99844.56;;;16.07;100.00
804;BME280;25687;49.976;8.240;2023-09-19T06:38:55;99847.44;;;16.25;100.00
804;BME280;25687;49.976;8.240;2023-09-19T06:41:20;99843.03;;;16.37;100.00
804;BME280;25687;49.976;8.240;2023-09-19T06:43:49;99852.41;;;16.59;100.00
804;BME280;25687;49.976;8.240;2023-09-19T06:46:17;99855.50;;;16.74;100.00
804;BME280;25687;49.976;8.240;2023-09-19T06:48:43;99855.44;;;16.86;100.00
804;BME280;25687;49.976;8.240;2023-09-19T06:51:09;99853.09;;;17.14;100.00
804;BME280;25687;49.976;8.240;2023-09-19T06:53:35;99856.28;;;17.37;100.00
804;BME280;25687;49.976;8.240;2023-09-19T06:56:01;99857.44;;;17.54;100.00
804;BME280;25687;49.976;8.240;2023-09-19T06:58:27;99864.78;;;17.49;100.00
804;BME280;25687;49.976;8.240;2023-09-19T07:00:52;99862.50;;;17.55;100.00
804;BME280;25687;49.976;8.240;2023-09-19T07:03:18;99874.25;;;17.59;100.00
804;BME280;25687;49.976;8.240;2023-09-19T07:05:47;99869.19;;;17.48;100.00
804;BME280;25687;49.976;8.240;2023-09-19T07:08:20;99878.78;;;17.67;100.00
804;BME280;25687;49.976;8.240;2023-09-19T07:10:45;99882.19;;;17.58;100.00
804;BME280;25687;49.976;8.240;2023-09-19T07:13:14;99887.97;;;17.91;100.00
804;BME280;25687;49.976;8.240;2023-09-19T07:15:42;99885.13;;;18.04;100.00
804;BME280;25687;49.976;8.240;2023-09-19T07:18:15;99892.22;;;17.82;100.00
804;BME280;25687;49.976;8.240;2023-09-19T07:20:42;99899.34;;;17.80;100.00
804;BME280;25687;49.976;8.240;2023-09-19T07:23:14;99900.75;;;17.94;100.00
804;BME280;25687;49.976;8.240;2023-09-19T07:25:40;99906.09;;;18.12;100.00
804;BME280;25687;49.976;8.240;2023-09-19T07:28:05;99908.38;;;18.54;100.00
804;BME280;25687;49.976;8.240;2023-09-19T07:30:31;99915.19;;;18.65;100.00
804;BME280;25687;49.976;8.240;2023-09-19T07:32:56;99918.16;;;18.90;100.00
804;BME280;25687;49.976;8.240;2023-09-19T07:35:22;99930.09;;;18.93;100.00
804;BME280;25687;49.976;8.240;2023-09-19T07:37:48;99926.44;;;18.76;100.00
804;BME280;25687;49.976;8.240;2023-09-19T07:40:21;99924.47;;;18.87;100.00
804;BME280;25687;49.976;8.240;2023-09-19T07:42:46;99925.59;;;18.95;100.00
804;BME280;25687;49.976;8.240;2023-09-19T07:45:12;99932.69;;;19.02;100.00
804;BME280;25687;49.976;8.240;2023-09-19T07:47:49;99933.75;;;19.10;100.00
804;BME280;25687;49.976;8.240;2023-09-19T07:50:16;99935.59;;;18.90;100.00
804;BME280;25687;49.976;8.240;2023-09-19T07:52:43;99936.16;;;18.93;100.00
804;BME280;25687;49.976;8.240;2023-09-19T07:55:09;99941.97;;;18.38;100.00
804;BME280;25687;49.976;8.240;2023-09-19T07:57:36;99952.81;;;18.33;100.00
804;BME280;25687;49.976;8.240;2023-09-19T08:00:02;99940.09;;;18.87;100.00
804;BME280;25687;49.976;8.240;2023-09-19T08:02:33;99942.69;;;19.07;100.00
804;BME280;25687;49.976;8.240;2023-09-19T08:04:59;99950.31;;;19.18;100.00
804;BME280;25687;49.976;8.240;2023-09-19T08:07:25;99940.31;;;19.51;100.00
804;BME280;25687;49.976;8.240;2023-09-19T08:09:50;99950.28;;;19.28;100.00
804;BME280;25687;49.976;8.240;2023-09-19T08:12:16;99950.63;;;19.43;100.00
804;BME280;25687;49.976;8.240;2023-09-19T08:14:42;99955.03;;;19.43;100.00
804;BME280;25687;49.976;8.240;2023-09-19T08:17:07;99957.13;;;19.39;100.00
804;BME280;25687;49.976;8.240;2023-09-19T08:19:33;99961.13;;;19.79;100.00
804;BME280;25687;49.976;8.240;2023-09-19T08:21:59;99961.13;;;20.07;100.00
804;BME280;25687;49.976;8.240;2023-09-19T08:24:25;99959.91;;;20.38;100.00
804;BME280;25687;49.976;8.240;2023-09-19T08:26:53;99958.44;;;20.17;99.42
804;BME280;25687;49.976;8.240;2023-09-19T08:29:19;99957.53;;;19.90;100.00
804;BME280;25687;49.976;8.240;2023-09-19T08:31:45;99973.53;;;19.22;100.00
804;BME280;25687;49.976;8.240;2023-09-19T08:34:10;99962.28;;;19.11;100.00
804;BME280;25687;49.976;8.240;2023-09-19T08:36:35;99966.47;;;19.32;100.00
804;BME280;25687;49.976;8.240;2023-09-19T08:39:02;99965.75;;;19.02;100.00
804;BME280;25687;49.976;8.240;2023-09-19T08:41:27;99974.13;;;19.71;100.00
804;BME280;25687;49.976;8.240;2023-09-19T08:43:53;99975.28;;;19.59;99.78
804;BME280;25687;49.976;8.240;2023-09-19T08:46:20;99974.66;;;19.75;100.00
804;BME280;25687;49.976;8.240;2023-09-19T08:49:24;99979.34;;;20.17;98.06
804;BME280;25687;49.976;8.240;2023-09-19T08:52:19;99982.78;;;20.80;90.43
804;BME280;25687;49.976;8.240;2023-09-19T08:54:47;99978.72;;;20.59;89.30
804;BME280;25687;49.976;8.240;2023-09-19T08:57:14;99989.09;;;20.95;89.11
804;BME280;25687;49.976;8.240;2023-09-19T08:59:47;99987.56;;;21.11;85.95
804;BME280;25687;49.976;8.240;2023-09-19T09:02:14;99988.81;;;21.68;79.25
804;BME280;25687;49.976;8.240;2023-09-19T09:04:43;99988.28;;;21.56;81.91
804;BME280;25687;49.976;8.240;2023-09-19T09:07:11;99995.72;;;21.85;78.11
804;BME280;25687;49.976;8.240;2023-09-19T09:09:38;99992.31;;;21.16;83.39
804;BME280;25687;49.976;8.240;2023-09-19T09:12:12;99990.69;;;21.49;82.53
804;BME280;25687;49.976;8.240;2023-09-19T09:14:44;99999.81;;;21.88;77.73
804;BME280;25687;49.976;8.240;2023-09-19T09:17:10;99999.09;;;22.78;73.13
804;BME280;25687;49.976;8.240;2023-09-19T09:19:37;99996.66;;;22.77;71.30
804;BME280;25687;49.976;8.240;2023-09-19T09:22:07;99987.03;;;23.33;66.65
804;BME280;25687;49.976;8.240;2023-09-19T09:24:32;99987.28;;;24.56;61.50
804;BME280;25687;49.976;8.240;2023-09-19T09:27:06;99982.88;;;24.10;57.04
804;BME280;25687;49.976;8.240;2023-09-19T09:29:48;99985.22;;;24.67;51.52
804;BME280;25687;49.976;8.240;2023-09-19T09:34:57;100006.03;;;24.76;50.66
804;BME280;25687;49.976;8.240;2023-09-19T09:37:23;100003.06;;;25.24;52.49
804;BME280;25687;49.976;8.240;2023-09-19T09:39:51;100005.09;;;23.68;60.46
804;BME280;25687;49.976;8.240;2023-09-19T09:42:34;100004.75;;;24.26;59.36
804;BME280;25687;49.976;8.240;2023-09-19T09:47:44;99998.56;;;24.42;54.00
804;BME280;25687;49.976;8.240;2023-09-19T09:50:25;100002.00;;;23.96;55.13
804;BME280;25687;49.976;8.240;2023-09-19T09:52:55;100003.66;;;24.81;51.83
804;BME280;25687;49.976;8.240;2023-09-19T09:55:27;99999.88;;;24.61;50.46
804;BME280;25687;49.976;8.240;2023-09-19T09:58:17;100012.69;;;24.41;51.12
804;BME280;25687;49.976;8.240;2023-09-19T10:00:53;100009.66;;;25.35;47.76
804;BME280;25687;49.976;8.240;2023-09-19T10:03:38;100004.69;;;25.92;45.94
804;BME280;25687;49.976;8.240;2023-09-19T10:06:09;99999.22;;;26.58;44.88
804;BME280;25687;49.976;8.240;2023-09-19T10:09:17;99993.38;;;26.13;42.73
804;BME280;25687;49.976;8.240;2023-09-19T10:11:46;99999.59;;;26.55;43.03
804;BME280;25687;49.976;8.240;2023-09-19T10:14:16;99993.28;;;26.50;41.93
804;BME280;25687;49.976;8.240;2023-09-19T10:16:48;99999.53;;;25.84;42.49
804;BME280;25687;49.976;8.240;2023-09-19T10:19:23;99998.41;;;25.11;45.33
804;BME280;25687;49.976;8.240;2023-09-19T10:21:55;99997.81;;;25.09;44.03
804;BME280;25687;49.976;8.240;2023-09-19T10:24:22;100000.72;;;24.15;47.10
804;BME280;25687;49.976;8.240;2023-09-19T10:26:50;99996.44;;;23.59;51.79
804;BME280;25687;49.976;8.240;2023-09-19T10:29:17;99990.25;;;23.52;48.34
804;BME280;25687;49.976;8.240;2023-09-19T10:31:44;99994.69;;;22.70;52.66
804;BME280;25687;49.976;8.240;2023-09-19T10:34:14;99988.09;;;22.25;57.53
804;BME280;25687;49.976;8.240;2023-09-19T10:36:44;99996.91;;;21.91;62.92
804;BME280;25687;49.976;8.240;2023-09-19T10:39:10;99996.91;;;21.91;63.28
804;BME280;25687;49.976;8.240;2023-09-19T10:41:39;99995.75;;;21.93;62.54
804;BME280;25687;49.976;8.240;2023-09-19T10:44:04;99997.63;;;21.67;65.51
804;BME280;25687;49.976;8.240;2023-09-19T10:46:34;99998.31;;;21.34;69.65
804;BME280;25687;49.976;8.240;2023-09-19T10:49:00;99988.22;;;21.48;69.77
804;BME280;25687;49.976;8.240;2023-09-19T10:51:29;99991.97;;;21.45;71.62
804;BME280;25687;49.976;8.240;2023-09-19T10:54:01;99982.38;;;21.19;75.42
804;BME280;25687;49.976;8.240;2023-09-19T10:56:33;99991.81;;;20.68;77.83
804;BME280;25687;49.976;8.240;2023-09-19T10:59:10;99981.78;;;20.55;77.37
804;BME280;25687;49.976;8.240;2023-09-19T11:01:45;99972.00;;;21.01;78.17
804;BME280;25687;49.976;8.240;2023-09-19T11:04:21;99973.97;;;21.42;71.90
804;BME280;25687;49.976;8.240;2023-09-19T11:09:42;99968.47;;;21.53;63.23
804;BME280;25687;49.976;8.240;2023-09-19T11:12:08;99965.66;;;22.06;62.61
804;BME280;25687;49.976;8.240;2023-09-19T11:14:38;99961.56;;;21.87;59.01
804;BME280;25687;49.976;8.240;2023-09-19T11:30:43;99939.53;;;21.55;60.63
804;BME280;25687;49.976;8.240;2023-09-19T11:36:14;99945.69;;;21.88;61.72
804;BME280;25687;49.976;8.240;2023-09-19T11:41:41;99939.00;;;21.51;64.83
804;BME280;25687;49.976;8.240;2023-09-19T11:49:16;99934.19;;;21.65;61.95
804;BME280;25687;49.976;8.240;2023-09-19T11:51:45;99938.03;;;21.52;63.38
804;BME280;25687;49.976;8.240;2023-09-19T11:54:13;99938.84;;;21.53;64.73
804;BME280;25687;49.976;8.240;2023-09-19T11:56:43;99933.44;;;21.46;61.93
804;BME280;25687;49.976;8.240;2023-09-19T11:59:09;99942.06;;;21.38;58.35
804;BME280;25687;49.976;8.240;2023-09-19T12:01:35;99937.69;;;21.47;66.07
804;BME280;25687;49.976;8.240;2023-09-19T12:04:03;99935.84;;;21.39;59.37
804;BME280;25687;49.976;8.240;2023-09-19T12:06:30;99938.47;;;21.31;58.30
804;BME280;25687;49.976;8.240;2023-09-19T12:08:55;99941.75;;;21.41;59.45
804;BME280;25687;49.976;8.240;2023-09-19T12:11:22;99925.88;;;21.35;56.99
804;BME280;25687;49.976;8.240;2023-09-19T12:13:48;99925.44;;;21.48;57.44
804;BME280;25687;49.976;8.240;2023-09-19T12:16:15;99929.16;;;21.37;57.52
804;BME280;25687;49.976;8.240;2023-09-19T12:18:42;99925.91;;;21.43;60.41
804;BME280;25687;49.976;8.240;2023-09-19T12:21:21;99921.47;;;21.35;56.59
804;BME280;25687;49.976;8.240;2023-09-19T12:24:14;99928.84;;;21.40;56.72
804;BME280;25687;49.976;8.240;2023-09-19T12:26:45;99932.22;;;21.32;57.51
804;BME280;25687;49.976;8.240;2023-09-19T12:29:20;99928.63;;;21.25;58.91
804;BME280;25687;49.976;8.240;2023-09-19T12:31:55;99926.50;;;21.28;57.31
804;BME280;25687;49.976;8.240;2023-09-19T12:34:27;99915.38;;;21.26;59.84
804;BME280;25687;49.976;8.240;2023-09-19T12:39:46;99912.50;;;21.54;53.43
804;BME280;25687;49.976;8.240;2023-09-19T12:42:20;99914.31;;;21.54;56.34
804;BME280;25687;49.976;8.240;2023-09-19T12:44:48;99921.41;;;21.62;59.93
804;BME280;25687;49.976;8.240;2023-09-19T12:47:16;99914.88;;;21.66;55.70
804;BME280;25687;49.976;8.240;2023-09-19T12:50:13;99905.81;;;21.52;55.60
804;BME280;25687;49.976;8.240;2023-09-19T12:52:52;99908.41;;;21.43;61.38
804;BME280;25687;49.976;8.240;2023-09-19T12:55:22;99902.09;;;21.20;55.83
804;BME280;25687;49.976;8.240;2023-09-19T13:03:27;99897.41;;;21.32;56.35
804;BME280;25687;49.976;8.240;2023-09-19T13:06:02;99903.22;;;21.17;55.89
804;BME280;25687;49.976;8.240;2023-09-19T13:08:36;99903.38;;;21.07;57.56
804;BME280;25687;49.976;8.240;2023-09-19T13:11:17;99895.25;;;21.19;56.72
804;BME280;25687;49.976;8.240;2023-09-19T13:14:15;99894.50;;;21.43;59.10
804;BME280;25687;49.976;8.240;2023-09-19T13:19:42;99891.31;;;21.66;59.26
804;BME280;25687;49.976;8.240;2023-09-19T13:22:41;99883.16;;;21.85;56.97
804;BME280;25687;49.976;8.240;2023-09-19T13:25:16;99886.59;;;21.86;53.91
804;BME280;25687;49.976;8.240;2023-09-19T13:30:14;99890.03;;;22.03;53.73
804;BME280;25687;49.976;8.240;2023-09-19T13:32:41;99890.88;;;22.12;55.59
804;BME280;25687;49.976;8.240;2023-09-19T13:35:08;99885.63;;;22.12;52.08
804;BME280;25687;49.976;8.240;2023-09-19T13:37:38;99882.66;;;22.15;54.43
804;BME280;25687;49.976;8.240;2023-09-19T13:40:09;99882.19;;;22.19;52.67
804;BME280;25687;49.976;8.240;2023-09-19T13:42:37;99882.84;;;21.88;57.04
804;BME280;25687;49.976;8.240;2023-09-19T13:45:03;99884.44;;;21.73;57.75
804;BME280;25687;49.976;8.240;2023-09-19T13:47:35;99891.31;;;21.57;55.19
804;BME280;25687;49.976;8.240;2023-09-19T13:50:03;99891.97;;;21.59;52.04
804;BME280;25687;49.976;8.240;2023-09-19T13:52:30;99885.09;;;21.75;50.87
804;BME280;25687;49.976;8.240;2023-09-19T13:54:56;99884.44;;;21.65;51.78
804;BME280;25687;49.976;8.240;2023-09-19T13:57:24;99877.06;;;21.60;51.16
804;BME280;25687;49.976;8.240;2023-09-19T13:59:51;99880.66;;;21.59;50.32
804;BME280;25687;49.976;8.240;2023-09-19T14:02:17;99883.88;;;21.44;52.89
804;BME280;25687;49.976;8.240;2023-09-19T14:04:44;99870.16;;;21.42;52.90
804;BME280;25687;49.976;8.240;2023-09-19T14:07:09;99876.88;;;21.53;55.12
804;BME280;25687;49.976;8.240;2023-09-19T14:09:36;99876.72;;;21.63;56.98
804;BME280;25687;49.976;8.240;2023-09-19T14:12:01;99877.50;;;21.55;55.24
804;BME280;25687;49.976;8.240;2023-09-19T14:14:26;99869.22;;;21.60;57.10
804;BME280;25687;49.976;8.240;2023-09-19T14:16:52;99872.66;;;21.85;53.81